Metar z połowy godziny Komunikat METAR ze strony awiacja.imgw.pl Metar G30 EPTM METAR EPTM 230800Z 09012KT 9999 OVC016 M04/M08 Q1007 RMK M043 077 8/8=